Putnam Station, New York
Current Conditions -  °F | °C
As of 11:35 AM on Saturday 22 Nov 2014 (Local Time) from K6B0 Reporting Station
Clear Clear  
Wind Chill: 23°   Ceiling: Unl
Heat Index: 31°   Visibility: 10mi
Dew Point: 10°   Wind: 9mph
Humidity: 43%   Direction: 190°S
Pressure: 30.18"   Gusts: 16mph
Location:  43.74°N, 73.4°W
Report Text: K6B0 221635Z AUTO 19008G14KT 10SM CLR M01/M12 A3018 RMK AO2 T10071120
Loading
Personal Weather Stations






























Interactive Weather Map New forecast layout! Learn more

10-Day Weather Forecast

Advertisements
Track Severe Weather on mobile